Porto Acre, Brazil
Current Conditions -  °F | °C
As of 2:00 PM on Friday 31 Oct 2014 (Local Time) from SBRB Reporting Station
Broken Clouds Broken Clouds  
Wind Chill: 88°   Ceiling: 2000
Heat Index: 94°   Visibility: 6mi
Dew Point: 72°   Wind: 5mph
Humidity: 58%   Direction: 50°NE
Pressure: 29.68"   Gusts: NA
Location:  9.58°S, 67.55°W
Report Text: SBRB 311900Z 05004KT 9999 BKN020 FEW025TCU BKN100 31/22 Q1005
Loading
Personal Weather Stations






























Interactive Weather Map
Tropical Storm Tracking
New forecast layout! Learn more

10-Day Weather Forecast

Advertisements
Track Severe Weather on mobile